Weather at Memorial Field

Public forecast

Using degrees Fahrenheit for public forecast. Weather courtesy of forecast.io.

Current aviation weather report (METAR) for Memorial Field

Retrieved 2022/01/29 12:53 UTC (58 minutes ago):

KHOT 291253Z AUTO 00000KT 10SM CLR M06/M09 A3039 RMK AO2 SLP295 T10611094

Aviation forecast (TAF) for Memorial Field

Retrieved 2022/01/29 12:22 UTC (1 hour ago):

TAF KHOT 291120Z 2912/3012 VRB02KT P6SM SKC FM291700 22010G16KT P6SM SKC FM300300 VRB06KT P6SM SKC WS020/25055KT